Bookmark and Share
Track history (hours):
 

Finlandia

Last reported at 2014-Apr-23 06:33 UTC. Time now 2014-Apr-23 06:54 UTC.
Position N 59°48' E 024°46'.

Length 175 m; draft 7 m.

Type: Ship (hazmat cat A). MMSI: 230628000.

NotesDate/timePositionNaut miles runAvg speedWind from/ knotsBaromVisibWave heightAir tempDewpointWater temp
2014-Apr-23 06:33N 59°48' E 024°46'2020.3
2014-Apr-23 05:34N 60°08' E 024°54'1 1.0
2014-Apr-23 04:32N 60°09' E 024°55'0 0.0
2014-Apr-23 03:32N 60°09' E 024°55'0 0.0
2014-Apr-23 02:32N 60°09' E 024°55'0 0.0
2014-Apr-23 01:08N 60°09' E 024°55'0 0.0
2014-Apr-23 00:32N 60°09' E 024°55'0 0.0
2014-Apr-22 23:32N 60°09' E 024°55'0 0.0
2014-Apr-22 22:23N 60°09' E 024°55'0 0.0
2014-Apr-22 21:20N 60°09' E 024°55'0 0.0
2014-Apr-22 20:32N 60°09' E 024°55'0 0.0
2014-Apr-22 18:23N 60°09' E 024°55'1112.8
2014-Apr-22 17:34N 59°59' E 024°54'2323.4
2014-Apr-22 16:34N 59°36' E 024°41'10 9.7
2014-Apr-22 15:33N 59°27' E 024°46'0 0.4
2014-Apr-22 14:34N 59°27' E 024°46'2020.3
2014-Apr-22 13:34N 59°47' E 024°49'2221.7
2014-Apr-22 12:33N 60°09' E 024°54'1 0.7
2014-Apr-22 11:31N 60°09' E 024°55'1212.9
2014-Apr-22 10:33N 59°57' E 024°53'2323.1
2014-Apr-22 09:34N 59°34' E 024°42'8 7.7
2014-Apr-22 08:32N 59°27' E 024°46'3 3.1
2014-Apr-22 07:33N 59°30' E 024°45'1919.3
2014-Apr-22 06:33N 59°49' E 024°47'2020.0
2014-Apr-22 05:33N 60°09' E 024°54'1 0.7
2014-Apr-22 04:32N 60°09' E 024°55'0 0.0
2014-Apr-22 03:32N 60°09' E 024°55'0 0.0
2014-Apr-22 02:32N 60°09' E 024°55'0 0.0
2014-Apr-22 01:26N 60°09' E 024°55'0 0.0
2014-Apr-22 00:26N 60°09' E 024°55'0 0.0
2014-Apr-21 23:23N 60°09' E 024°55'0 0.0
2014-Apr-21 22:29N 60°09' E 024°55'0 0.0
2014-Apr-21 21:29N 60°09' E 024°55'0 0.0
2014-Apr-21 20:32N 60°09' E 024°55'0 0.0
2014-Apr-21 19:23N 60°09' E 024°55'0 0.0
2014-Apr-21 18:29N 60°09' E 024°55'9 9.4
2014-Apr-21 17:33N 60°01' E 024°54'2121.3
2014-Apr-21 16:34N 59°40' E 024°44'1312.8
2014-Apr-21 15:31N 59°27' E 024°46'0 0.0
2014-Apr-21 14:33N 59°27' E 024°46'2020.3
2014-Apr-21 13:34N 59°47' E 024°48'2222.1
2014-Apr-21 12:33N 60°09' E 024°55'1 0.6
2014-Apr-21 11:33N 60°09' E 024°55'1212.3
2014-Apr-21 10:32N 59°57' E 024°53'2222.1
2014-Apr-21 09:34N 59°36' E 024°41'10 8.4
2014-Apr-21 08:26N 59°27' E 024°46'3 4.0
2014-Apr-21 07:33N 59°30' E 024°44'1919.3
2014-Apr-21 06:33N 59°49' E 024°48'1918.9
2014-Apr-21 05:33N 60°08' E 024°54'1 1.3
2014-Apr-21 04:31N 60°09' E 024°55'0 0.0
2014-Apr-21 03:31N 60°09' E 024°55'0 0.0
2014-Apr-21 02:31N 60°09' E 024°55'0 0.0
2014-Apr-21 00:28N 60°09' E 024°55'0 0.0
2014-Apr-20 23:31N 60°09' E 024°55'0 0.0
2014-Apr-20 21:31N 60°09' E 024°55'0 0.0
2014-Apr-20 20:28N 60°09' E 024°55'0 0.0
2014-Apr-20 19:31N 60°09' E 024°55'0 0.0
2014-Apr-20 18:19N 60°09' E 024°55'4 5.8
2014-Apr-20 17:33N 60°05' E 024°54'2120.0
2014-Apr-20 16:32N 59°45' E 024°47'1818.4
2014-Apr-20 15:33N 59°27' E 024°46'0 0.0
2014-Apr-20 14:33N 59°27' E 024°46'1919.3
2014-Apr-20 13:33N 59°46' E 024°48'2323.0
2014-Apr-20 12:33N 60°09' E 024°55'1 0.6
2014-Apr-20 11:34N 60°09' E 024°55'1211.7
2014-Apr-20 10:33N 59°58' E 024°54'2020.2
2014-Apr-20 09:33N 59°38' E 024°43'1110.8
2014-Apr-20 08:30N 59°27' E 024°46'2 1.6
2014-Apr-20 07:33N 59°28' E 024°46'2020.0
2014-Apr-20 06:33N 59°48' E 024°46'2020.3
2014-Apr-20 05:33N 60°08' E 024°54'1 1.2
2014-Apr-20 04:33N 60°09' E 024°55'0 0.0
2014-Apr-20 03:33N 60°09' E 024°55'0 0.0
2014-Apr-20 02:33N 60°09' E 024°55'0 0.0
2014-Apr-20 01:33N 60°09' E 024°55'0 0.0
2014-Apr-20 00:33N 60°09' E 024°55'0 0.0
2014-Apr-19 23:30N 60°09' E 024°55'0 0.0
2014-Apr-19 22:12N 60°09' E 024°55'0 0.0
2014-Apr-19 21:33N 60°09' E 024°55'0 0.0
2014-Apr-19 20:33N 60°09' E 024°55'0 0.0
2014-Apr-19 19:33N 60°09' E 024°55'0 0.0
2014-Apr-19 18:21N 60°09' E 024°55'810.5
2014-Apr-19 17:34N 60°01' E 024°54'2121.0
2014-Apr-19 16:34N 59°41' E 024°41'1513.9
2014-Apr-19 15:31N 59°27' E 024°46'1 0.7
2014-Apr-19 14:33N 59°27' E 024°47'2121.0
2014-Apr-19 13:33N 59°48' E 024°49'2121.0
2014-Apr-19 12:34N 60°09' E 024°55'1 0.6
2014-Apr-19 11:31N 60°09' E 024°55'1111.3
2014-Apr-19 10:33N 59°58' E 024°54'2121.1
2014-Apr-19 09:33N 59°38' E 024°41'1210.8
2014-Apr-19 08:29N 59°27' E 024°46'1 1.6
2014-Apr-19 07:34N 59°28' E 024°46'2120.8
2014-Apr-19 06:33N 59°49' E 024°47'2020.1
2014-Apr-19 05:33N 60°09' E 024°55'1 0.6
2014-Apr-19 04:32N 60°09' E 024°55'0 0.0
2014-Apr-19 03:31N 60°09' E 024°55'0 0.0
2014-Apr-19 02:31N 60°09' E 024°55'0 0.0
2014-Apr-19 01:31N 60°09' E 024°55'0 0.0
2014-Apr-19 00:31N 60°09' E 024°55'0 0.0
2014-Apr-18 23:28N 60°09' E 024°55'0 0.0
2014-Apr-18 22:31N 60°09' E 024°55'0 0.0
2014-Apr-18 21:07N 60°09' E 024°55'0 0.0
2014-Apr-18 20:22N 60°09' E 024°55'0 0.0
2014-Apr-18 19:22N 60°09' E 024°55'0 0.0
2014-Apr-18 18:10N 60°09' E 024°55'5 7.5
2014-Apr-18 17:33N 60°05' E 024°54'2220.9
2014-Apr-18 16:30N 59°43' E 024°47'1616.5
2014-Apr-18 15:31N 59°27' E 024°46'0 0.0
2014-Apr-18 14:33N 59°27' E 024°46'3021.2
2014-Apr-18 13:09N 59°56' E 024°53'1321.0
2014-Apr-18 12:33N 60°09' E 024°55'1 0.6
2014-Apr-18 11:31N 60°09' E 024°55'1111.0
2014-Apr-18 10:33N 59°59' E 024°57'2221.6
2014-Apr-18 09:33N 59°38' E 024°43'1211.1
2014-Apr-18 08:31N 59°27' E 024°46'2 1.7
2014-Apr-18 07:33N 59°28' E 024°46'2321.1
2014-Apr-18 06:28N 59°51' E 024°49'1819.4
2014-Apr-18 05:33N 60°09' E 024°55'1 0.5
2014-Apr-18 04:31N 60°09' E 024°55'0 0.0
2014-Apr-18 03:31N 60°09' E 024°55'0 0.0
2014-Apr-18 02:22N 60°09' E 024°55'0 0.0
2014-Apr-18 01:25N 60°09' E 024°55'0 0.0
2014-Apr-18 00:16N 60°09' E 024°55'0 0.0
2014-Apr-17 22:28N 60°09' E 024°55'0 0.0
2014-Apr-17 21:25N 60°09' E 024°55'0 0.0
2014-Apr-17 20:22N 60°09' E 024°55'0 0.0
2014-Apr-17 19:28N 60°09' E 024°55'0 0.0
2014-Apr-17 18:28N 60°09' E 024°55'1011.3
2014-Apr-17 17:33N 59°59' E 024°54'2121.5
2014-Apr-17 16:34N 59°38' E 024°41'1211.6
2014-Apr-17 15:31N 59°27' E 024°46'1 1.5
2014-Apr-17 14:34N 59°28' E 024°46'2322.8
2014-Apr-17 13:33N 59°51' E 024°50'1818.5
2014-Apr-17 12:33N 60°09' E 024°55'0 0.0
2014-Apr-17 11:33N 60°09' E 024°55'1212.5
2014-Apr-17 10:33N 59°57' E 024°53'2120.8
2014-Apr-17 09:33N 59°37' E 024°41'1010.1
2014-Apr-17 08:31N 59°27' E 024°46'2 2.5
2014-Apr-17 07:33N 59°29' E 024°45'2019.7
2014-Apr-17 06:31N 59°50' E 024°47'1920.1
2014-Apr-17 05:33N 60°09' E 024°54'1 0.8
2014-Apr-17 04:32N 60°09' E 024°55'0 0.0
2014-Apr-17 03:32N 60°09' E 024°55'0 0.0
2014-Apr-17 02:32N 60°09' E 024°55'0 0.0
2014-Apr-17 01:32N 60°09' E 024°55'0 0.0
2014-Apr-17 00:26N 60°09' E 024°55'0 0.0
2014-Apr-16 23:32N 60°09' E 024°55'0 0.0
2014-Apr-16 22:32N 60°09' E 024°55'0 0.0
2014-Apr-16 21:32N 60°09' E 024°55'0 0.0
2014-Apr-16 20:14N 60°09' E 024°55'0 0.0
2014-Apr-16 19:11N 60°09' E 024°55'0 0.0
2014-Apr-16 18:29N 60°09' E 024°55'1111.3
2014-Apr-16 17:33N 59°59' E 024°54'2424.4
2014-Apr-16 16:34N 59°35' E 024°42'9 8.1
2014-Apr-16 15:29N 59°27' E 024°46'1 1.3
2014-Apr-16 14:33N 59°28' E 024°47'2322.8
2014-Apr-16 13:33N 59°50' E 024°53'1918.9
2014-Apr-16 12:33N 60°09' E 024°55'0 0.0
2014-Apr-16 11:33N 60°09' E 024°55'3517.3
2014-Apr-16 09:33N 59°35' E 024°42'9 8.9
2014-Apr-16 08:33N 59°27' E 024°46'2 2.1
2014-Apr-16 07:33N 59°29' E 024°46'1919.5
2014-Apr-16 06:33N 59°48' E 024°49'2020.4
2014-Apr-16 05:34N 60°09' E 024°54'1 0.9
2014-Apr-16 04:33N 60°09' E 024°55'0 0.0
2014-Apr-16 03:33N 60°09' E 024°55'0 0.0
2014-Apr-16 01:24N 60°09' E 024°55'0 0.0
2014-Apr-16 00:21N 60°09' E 024°55'0 0.0
2014-Apr-15 23:33N 60°09' E 024°55'0 0.0
2014-Apr-15 22:24N 60°09' E 024°55'0 0.0
2014-Apr-15 21:30N 60°09' E 024°55'0 0.0
2014-Apr-15 20:18N 60°09' E 024°55'0 0.0
2014-Apr-15 19:27N 60°09' E 024°55'0 0.0
2014-Apr-15 18:33N 60°09' E 024°55'9 9.2
2014-Apr-15 17:34N 60°00' E 024°54'2323.3
2014-Apr-15 16:34N 59°38' E 024°42'1110.7
2014-Apr-15 15:32N 59°27' E 024°46'0 0.4
2014-Apr-15 14:33N 59°27' E 024°47'2110.4
2014-Apr-15 12:34N 59°48' E 024°50'2121.3
2014-Apr-15 11:34N 60°09' E 024°54'1 0.6
2014-Apr-15 10:31N 60°09' E 024°55'3417.3
2014-Apr-15 08:34N 59°36' E 024°41'6 3.1
2014-Apr-15 06:34N 59°30' E 024°44'2322.1
2014-Apr-15 05:33N 59°53' E 024°51'17 8.5
2014-Apr-15 03:34N 60°09' E 024°55'0 0.0
2014-Apr-15 02:34N 60°09' E 024°55'0 0.0
2014-Apr-14 23:34N 60°09' E 024°55'0 0.0
2014-Apr-14 22:34N 60°09' E 024°55'0 0.0
2014-Apr-14 21:31N 60°09' E 024°55'9 1.9
2014-Apr-14 16:34N 59°60' E 024°54'2121.0
2014-Apr-14 15:34N 59°40' E 024°44'1312.9
2014-Apr-14 14:34N 59°27' E 024°46'0 0.1
2014-Apr-14 13:34N 59°27' E 024°46'4220.9
2014-Apr-14 11:34N 60°08' E 024°54'1 1.1
2014-Apr-14 10:32N 60°09' E 024°55'1413.6
2014-Apr-14 09:31N 59°56' E 024°52'2021.0
2014-Apr-14 08:34N 59°36' E 024°41'10 9.5
2014-Apr-14 07:32N 59°27' E 024°46'3 3.6
2014-Apr-14 06:33N 59°30' E 024°45'2120.1
2014-Apr-14 05:32N 59°51' E 024°50'19 2.7
2014-Apr-13 22:30N 60°09' E 024°55'0 0.0
2014-Apr-13 21:27N 60°09' E 024°55'0 0.0
2014-Apr-13 20:24N 60°09' E 024°55'0 0.0
2014-Apr-13 18:13N 60°09' E 024°55'812.0
2014-Apr-13 17:33N 60°01' E 024°55'2120.9
2014-Apr-13 16:33N 59°42' E 024°41'1514.7
2014-Apr-13 15:32N 59°27' E 024°46'0 0.1
2014-Apr-13 14:34N 59°27' E 024°46'2020.4
2014-Apr-13 13:34N 59°47' E 024°49'2221.8
2014-Apr-13 12:33N 60°09' E 024°55'1 0.6
2014-Apr-13 11:31N 60°09' E 024°55'1313.3
2014-Apr-13 10:32N 59°56' E 024°53'2222.7
2014-Apr-13 09:34N 59°35' E 024°42'8 8.1
2014-Apr-13 08:33N 59°27' E 024°46'3 2.9
2014-Apr-13 07:33N 59°30' E 024°45'1919.4
2014-Apr-13 06:33N 59°49' E 024°46'  

Dump ship's entire track history

sailing weather and tide predictions

Finlandia — OJPP — position and weather